sensor_id;sensor_type;location;lat;lon;timestamp;P1;durP1;ratioP1;P2;durP2;ratioP2
25962;SDS011;13760;52.588;13.406;2024-02-15T00:00:36;19.58;;;12.80;;
25962;SDS011;13760;52.588;13.406;2024-02-15T00:03:02;18.15;;;13.10;;
25962;SDS011;13760;52.588;13.406;2024-02-15T00:05:28;18.88;;;13.32;;
25962;SDS011;13760;52.588;13.406;2024-02-15T00:07:53;17.08;;;13.05;;
25962;SDS011;13760;52.588;13.406;2024-02-15T00:10:19;16.55;;;13.25;;
25962;SDS011;13760;52.588;13.406;2024-02-15T00:12:49;19.58;;;13.13;;
25962;SDS011;13760;52.588;13.406;2024-02-15T00:15:16;18.60;;;12.43;;
25962;SDS011;13760;52.588;13.406;2024-02-15T00:17:41;18.15;;;13.00;;
25962;SDS011;13760;52.588;13.406;2024-02-15T00:20:07;19.58;;;13.45;;
25962;SDS011;13760;52.588;13.406;2024-02-15T00:22:34;16.83;;;13.07;;
25962;SDS011;13760;52.588;13.406;2024-02-15T00:25:01;22.63;;;13.20;;
25962;SDS011;13760;52.588;13.406;2024-02-15T00:27:26;19.90;;;13.82;;
25962;SDS011;13760;52.588;13.406;2024-02-15T00:29:52;20.33;;;13.65;;
25962;SDS011;13760;52.588;13.406;2024-02-15T00:32:17;19.70;;;13.20;;
25962;SDS011;13760;52.588;13.406;2024-02-15T00:34:43;19.98;;;13.18;;
25962;SDS011;13760;52.588;13.406;2024-02-15T00:37:08;19.75;;;13.90;;
25962;SDS011;13760;52.588;13.406;2024-02-15T00:39:34;18.38;;;13.70;;
25962;SDS011;13760;52.588;13.406;2024-02-15T00:41:59;20.10;;;12.70;;
25962;SDS011;13760;52.588;13.406;2024-02-15T00:44:25;19.35;;;13.27;;
25962;SDS011;13760;52.588;13.406;2024-02-15T00:46:51;15.77;;;12.63;;
25962;SDS011;13760;52.588;13.406;2024-02-15T00:49:17;19.33;;;12.98;;
25962;SDS011;13760;52.588;13.406;2024-02-15T00:51:45;19.63;;;13.85;;
25962;SDS011;13760;52.588;13.406;2024-02-15T00:54:11;19.35;;;13.60;;
25962;SDS011;13760;52.588;13.406;2024-02-15T00:56:36;16.88;;;13.23;;
25962;SDS011;13760;52.588;13.406;2024-02-15T00:59:02;19.10;;;13.73;;
25962;SDS011;13760;52.588;13.406;2024-02-15T01:01:28;18.98;;;13.75;;
25962;SDS011;13760;52.588;13.406;2024-02-15T01:03:54;16.98;;;13.43;;
25962;SDS011;13760;52.588;13.406;2024-02-15T01:06:19;21.55;;;14.13;;
25962;SDS011;13760;52.588;13.406;2024-02-15T01:08:45;21.40;;;15.70;;
25962;SDS011;13760;52.588;13.406;2024-02-15T01:11:11;25.80;;;15.82;;
25962;SDS011;13760;52.588;13.406;2024-02-15T01:13:38;23.00;;;15.13;;
25962;SDS011;13760;52.588;13.406;2024-02-15T01:16:04;19.70;;;15.10;;
25962;SDS011;13760;52.588;13.406;2024-02-15T01:18:30;23.25;;;15.93;;
25962;SDS011;13760;52.588;13.406;2024-02-15T01:20:56;23.05;;;15.93;;
25962;SDS011;13760;52.588;13.406;2024-02-15T01:23:22;22.10;;;16.55;;
25962;SDS011;13760;52.588;13.406;2024-02-15T01:25:48;25.63;;;17.40;;
25962;SDS011;13760;52.588;13.406;2024-02-15T01:28:14;24.85;;;16.38;;
25962;SDS011;13760;52.588;13.406;2024-02-15T01:30:39;26.70;;;17.85;;
25962;SDS011;13760;52.588;13.406;2024-02-15T01:33:05;26.60;;;17.05;;
25962;SDS011;13760;52.588;13.406;2024-02-15T01:35:31;23.10;;;16.63;;
25962;SDS011;13760;52.588;13.406;2024-02-15T01:37:56;23.80;;;17.55;;
25962;SDS011;13760;52.588;13.406;2024-02-15T01:40:22;24.08;;;17.48;;
25962;SDS011;13760;52.588;13.406;2024-02-15T01:42:47;23.55;;;16.70;;
25962;SDS011;13760;52.588;13.406;2024-02-15T01:45:15;26.85;;;17.45;;
25962;SDS011;13760;52.588;13.406;2024-02-15T01:47:41;25.45;;;16.58;;
25962;SDS011;13760;52.588;13.406;2024-02-15T01:50:07;24.48;;;18.35;;
25962;SDS011;13760;52.588;13.406;2024-02-15T01:52:37;28.20;;;17.33;;
25962;SDS011;13760;52.588;13.406;2024-02-15T01:55:04;23.55;;;17.13;;
25962;SDS011;13760;52.588;13.406;2024-02-15T01:57:34;25.38;;;17.73;;
25962;SDS011;13760;52.588;13.406;2024-02-15T02:00:03;25.77;;;18.03;;
25962;SDS011;13760;52.588;13.406;2024-02-15T02:02:31;22.88;;;16.40;;
25962;SDS011;13760;52.588;13.406;2024-02-15T02:04:59;25.38;;;17.10;;
25962;SDS011;13760;52.588;13.406;2024-02-15T02:07:25;26.55;;;18.02;;
25962;SDS011;13760;52.588;13.406;2024-02-15T02:09:51;25.42;;;17.67;;
25962;SDS011;13760;52.588;13.406;2024-02-15T02:12:16;23.20;;;17.30;;
25962;SDS011;13760;52.588;13.406;2024-02-15T02:14:43;27.20;;;17.98;;
25962;SDS011;13760;52.588;13.406;2024-02-15T02:17:15;31.65;;;19.15;;
25962;SDS011;13760;52.588;13.406;2024-02-15T02:19:41;26.58;;;19.27;;
25962;SDS011;13760;52.588;13.406;2024-02-15T02:22:08;26.05;;;18.55;;
25962;SDS011;13760;52.588;13.406;2024-02-15T02:24:35;25.90;;;18.30;;
25962;SDS011;13760;52.588;13.406;2024-02-15T02:27:10;33.83;;;19.83;;
25962;SDS011;13760;52.588;13.406;2024-02-15T02:29:42;29.23;;;20.15;;
25962;SDS011;13760;52.588;13.406;2024-02-15T02:32:10;34.15;;;20.27;;
25962;SDS011;13760;52.588;13.406;2024-02-15T02:34:36;33.15;;;20.25;;
25962;SDS011;13760;52.588;13.406;2024-02-15T02:37:01;27.85;;;20.05;;
25962;SDS011;13760;52.588;13.406;2024-02-15T02:39:30;29.40;;;21.15;;
25962;SDS011;13760;52.588;13.406;2024-02-15T02:41:56;32.03;;;21.75;;
25962;SDS011;13760;52.588;13.406;2024-02-15T02:44:22;33.15;;;20.90;;
25962;SDS011;13760;52.588;13.406;2024-02-15T02:46:47;28.48;;;20.13;;
25962;SDS011;13760;52.588;13.406;2024-02-15T02:49:13;39.03;;;23.00;;
25962;SDS011;13760;52.588;13.406;2024-02-15T02:51:38;32.47;;;22.50;;
25962;SDS011;13760;52.588;13.406;2024-02-15T02:54:04;33.78;;;22.35;;
25962;SDS011;13760;52.588;13.406;2024-02-15T02:56:31;32.47;;;22.88;;
25962;SDS011;13760;52.588;13.406;2024-02-15T02:58:57;30.30;;;21.38;;
25962;SDS011;13760;52.588;13.406;2024-02-15T03:01:23;32.97;;;22.08;;
25962;SDS011;13760;52.588;13.406;2024-02-15T03:03:51;32.38;;;21.65;;
25962;SDS011;13760;52.588;13.406;2024-02-15T03:06:20;32.00;;;22.67;;
25962;SDS011;13760;52.588;13.406;2024-02-15T03:08:46;33.05;;;22.10;;
25962;SDS011;13760;52.588;13.406;2024-02-15T03:11:12;32.63;;;22.30;;
25962;SDS011;13760;52.588;13.406;2024-02-15T03:13:39;34.78;;;22.55;;
25962;SDS011;13760;52.588;13.406;2024-02-15T03:16:05;32.97;;;21.70;;
25962;SDS011;13760;52.588;13.406;2024-02-15T03:18:31;33.50;;;22.60;;
25962;SDS011;13760;52.588;13.406;2024-02-15T03:20:58;37.50;;;23.30;;
25962;SDS011;13760;52.588;13.406;2024-02-15T03:23:30;33.10;;;22.58;;
25962;SDS011;13760;52.588;13.406;2024-02-15T03:26:07;37.22;;;23.73;;
25962;SDS011;13760;52.588;13.406;2024-02-15T03:28:34;32.35;;;22.05;;
25962;SDS011;13760;52.588;13.406;2024-02-15T03:31:01;36.38;;;22.70;;
25962;SDS011;13760;52.588;13.406;2024-02-15T03:33:27;37.25;;;22.17;;
25962;SDS011;13760;52.588;13.406;2024-02-15T03:35:57;35.63;;;23.60;;
25962;SDS011;13760;52.588;13.406;2024-02-15T03:38:24;34.95;;;22.48;;
25962;SDS011;13760;52.588;13.406;2024-02-15T03:40:51;33.78;;;23.38;;
25962;SDS011;13760;52.588;13.406;2024-02-15T03:43:17;33.25;;;21.52;;
25962;SDS011;13760;52.588;13.406;2024-02-15T03:45:42;33.10;;;22.52;;
25962;SDS011;13760;52.588;13.406;2024-02-15T03:48:09;35.53;;;22.27;;
25962;SDS011;13760;52.588;13.406;2024-02-15T03:50:35;38.00;;;22.25;;
25962;SDS011;13760;52.588;13.406;2024-02-15T03:53:01;36.60;;;23.33;;
25962;SDS011;13760;52.588;13.406;2024-02-15T03:55:26;33.70;;;21.90;;
25962;SDS011;13760;52.588;13.406;2024-02-15T03:57:52;37.17;;;22.85;;
25962;SDS011;13760;52.588;13.406;2024-02-15T04:00:20;42.42;;;23.52;;
25962;SDS011;13760;52.588;13.406;2024-02-15T04:02:46;35.45;;;21.70;;
25962;SDS011;13760;52.588;13.406;2024-02-15T04:05:14;36.22;;;22.48;;
25962;SDS011;13760;52.588;13.406;2024-02-15T04:07:39;38.53;;;22.67;;
25962;SDS011;13760;52.588;13.406;2024-02-15T04:10:05;37.60;;;22.67;;
25962;SDS011;13760;52.588;13.406;2024-02-15T04:12:32;37.10;;;22.67;;
25962;SDS011;13760;52.588;13.406;2024-02-15T04:14:58;37.95;;;22.52;;
25962;SDS011;13760;52.588;13.406;2024-02-15T04:17:31;39.42;;;21.80;;
25962;SDS011;13760;52.588;13.406;2024-02-15T04:20:00;37.67;;;23.10;;
25962;SDS011;13760;52.588;13.406;2024-02-15T04:22:26;37.33;;;23.27;;
25962;SDS011;13760;52.588;13.406;2024-02-15T04:24:51;39.85;;;23.60;;
25962;SDS011;13760;52.588;13.406;2024-02-15T04:27:17;39.53;;;23.70;;
25962;SDS011;13760;52.588;13.406;2024-02-15T04:29:45;41.20;;;23.67;;
25962;SDS011;13760;52.588;13.406;2024-02-15T04:32:11;39.20;;;22.95;;
25962;SDS011;13760;52.588;13.406;2024-02-15T04:34:38;40.67;;;24.00;;
25962;SDS011;13760;52.588;13.406;2024-02-15T04:37:04;44.65;;;24.20;;
25962;SDS011;13760;52.588;13.406;2024-02-15T04:39:33;41.55;;;23.30;;
25962;SDS011;13760;52.588;13.406;2024-02-15T04:42:02;40.00;;;24.75;;
25962;SDS011;13760;52.588;13.406;2024-02-15T04:44:28;42.53;;;24.90;;
25962;SDS011;13760;52.588;13.406;2024-02-15T04:46:54;38.38;;;24.40;;
25962;SDS011;13760;52.588;13.406;2024-02-15T04:49:20;42.08;;;25.30;;
25962;SDS011;13760;52.588;13.406;2024-02-15T04:51:46;43.55;;;25.10;;
25962;SDS011;13760;52.588;13.406;2024-02-15T04:54:14;47.67;;;26.20;;
25962;SDS011;13760;52.588;13.406;2024-02-15T04:56:41;42.42;;;25.52;;
25962;SDS011;13760;52.588;13.406;2024-02-15T04:59:07;45.33;;;24.95;;
25962;SDS011;13760;52.588;13.406;2024-02-15T05:01:34;41.28;;;24.75;;
25962;SDS011;13760;52.588;13.406;2024-02-15T05:03:59;44.03;;;25.77;;
25962;SDS011;13760;52.588;13.406;2024-02-15T05:06:25;46.22;;;25.70;;
25962;SDS011;13760;52.588;13.406;2024-02-15T05:08:55;42.45;;;23.65;;
25962;SDS011;13760;52.588;13.406;2024-02-15T05:11:22;42.97;;;23.40;;
25962;SDS011;13760;52.588;13.406;2024-02-15T05:13:47;41.13;;;23.27;;
25962;SDS011;13760;52.588;13.406;2024-02-15T05:16:16;45.47;;;25.63;;
25962;SDS011;13760;52.588;13.406;2024-02-15T05:18:42;43.60;;;24.00;;
25962;SDS011;13760;52.588;13.406;2024-02-15T05:21:07;44.85;;;23.85;;
25962;SDS011;13760;52.588;13.406;2024-02-15T05:23:34;46.30;;;25.63;;
25962;SDS011;13760;52.588;13.406;2024-02-15T05:26:00;48.85;;;24.48;;
25962;SDS011;13760;52.588;13.406;2024-02-15T05:28:26;43.03;;;24.38;;
25962;SDS011;13760;52.588;13.406;2024-02-15T05:31:08;48.05;;;24.77;;
25962;SDS011;13760;52.588;13.406;2024-02-15T05:33:36;43.42;;;23.70;;
25962;SDS011;13760;52.588;13.406;2024-02-15T05:36:03;49.65;;;24.27;;
25962;SDS011;13760;52.588;13.406;2024-02-15T05:38:29;39.85;;;22.67;;
25962;SDS011;13760;52.588;13.406;2024-02-15T05:40:55;46.35;;;24.13;;
25962;SDS011;13760;52.588;13.406;2024-02-15T05:43:21;45.60;;;23.55;;
25962;SDS011;13760;52.588;13.406;2024-02-15T05:45:47;40.55;;;21.48;;
25962;SDS011;13760;52.588;13.406;2024-02-15T05:48:14;43.88;;;22.45;;
25962;SDS011;13760;52.588;13.406;2024-02-15T05:50:39;42.88;;;22.33;;
25962;SDS011;13760;52.588;13.406;2024-02-15T05:53:05;41.47;;;21.92;;
25962;SDS011;13760;52.588;13.406;2024-02-15T05:55:32;45.70;;;22.92;;
25962;SDS011;13760;52.588;13.406;2024-02-15T05:57:59;41.40;;;22.52;;
25962;SDS011;13760;52.588;13.406;2024-02-15T06:00:24;41.53;;;22.50;;
25962;SDS011;13760;52.588;13.406;2024-02-15T06:02:50;41.90;;;22.20;;
25962;SDS011;13760;52.588;13.406;2024-02-15T06:05:17;40.08;;;21.30;;
25962;SDS011;13760;52.588;13.406;2024-02-15T06:07:43;42.45;;;21.92;;
25962;SDS011;13760;52.588;13.406;2024-02-15T06:10:09;41.10;;;20.63;;
25962;SDS011;13760;52.588;13.406;2024-02-15T06:12:35;43.33;;;21.52;;
25962;SDS011;13760;52.588;13.406;2024-02-15T06:15:03;39.63;;;20.88;;
25962;SDS011;13760;52.588;13.406;2024-02-15T06:17:30;37.97;;;21.27;;
25962;SDS011;13760;52.588;13.406;2024-02-15T06:19:56;41.25;;;21.88;;
25962;SDS011;13760;52.588;13.406;2024-02-15T06:22:22;42.28;;;22.10;;
25962;SDS011;13760;52.588;13.406;2024-02-15T06:24:47;38.38;;;21.15;;
25962;SDS011;13760;52.588;13.406;2024-02-15T06:27:13;39.65;;;20.13;;
25962;SDS011;13760;52.588;13.406;2024-02-15T06:29:39;38.80;;;20.50;;
25962;SDS011;13760;52.588;13.406;2024-02-15T06:32:23;41.60;;;21.20;;
25962;SDS011;13760;52.588;13.406;2024-02-15T06:35:07;39.35;;;20.75;;
25962;SDS011;13760;52.588;13.406;2024-02-15T06:37:52;38.97;;;20.60;;
25962;SDS011;13760;52.588;13.406;2024-02-15T06:40:36;40.33;;;20.25;;
25962;SDS011;13760;52.588;13.406;2024-02-15T06:43:02;41.53;;;21.77;;
25962;SDS011;13760;52.588;13.406;2024-02-15T06:45:28;40.47;;;21.55;;
25962;SDS011;13760;52.588;13.406;2024-02-15T06:47:57;38.20;;;20.80;;
25962;SDS011;13760;52.588;13.406;2024-02-15T06:50:23;39.63;;;21.45;;
25962;SDS011;13760;52.588;13.406;2024-02-15T06:52:48;40.17;;;21.83;;
25962;SDS011;13760;52.588;13.406;2024-02-15T06:55:16;44.03;;;21.73;;
25962;SDS011;13760;52.588;13.406;2024-02-15T06:57:44;42.70;;;21.27;;
25962;SDS011;13760;52.588;13.406;2024-02-15T07:00:09;38.65;;;20.23;;
25962;SDS011;13760;52.588;13.406;2024-02-15T07:02:40;41.60;;;21.75;;
25962;SDS011;13760;52.588;13.406;2024-02-15T07:05:12;39.25;;;21.20;;
25962;SDS011;13760;52.588;13.406;2024-02-15T07:07:38;41.90;;;21.75;;
25962;SDS011;13760;52.588;13.406;2024-02-15T07:10:04;49.92;;;22.13;;
25962;SDS011;13760;52.588;13.406;2024-02-15T07:12:31;36.97;;;20.98;;
25962;SDS011;13760;52.588;13.406;2024-02-15T07:14:57;43.40;;;22.45;;
25962;SDS011;13760;52.588;13.406;2024-02-15T07:17:23;44.40;;;21.58;;
25962;SDS011;13760;52.588;13.406;2024-02-15T07:19:48;37.40;;;20.75;;
25962;SDS011;13760;52.588;13.406;2024-02-15T07:22:17;45.08;;;21.60;;
25962;SDS011;13760;52.588;13.406;2024-02-15T07:24:42;42.67;;;21.85;;
25962;SDS011;13760;52.588;13.406;2024-02-15T07:27:08;42.72;;;20.83;;
25962;SDS011;13760;52.588;13.406;2024-02-15T07:29:35;34.67;;;21.52;;
25962;SDS011;13760;52.588;13.406;2024-02-15T07:32:05;36.33;;;20.45;;
25962;SDS011;13760;52.588;13.406;2024-02-15T07:36:59;36.33;;;20.38;;
25962;SDS011;13760;52.588;13.406;2024-02-15T07:39:25;36.60;;;20.90;;
25962;SDS011;13760;52.588;13.406;2024-02-15T07:41:56;39.47;;;21.48;;
25962;SDS011;13760;52.588;13.406;2024-02-15T07:44:23;42.10;;;21.73;;
25962;SDS011;13760;52.588;13.406;2024-02-15T07:46:49;34.50;;;19.85;;
25962;SDS011;13760;52.588;13.406;2024-02-15T07:49:15;37.22;;;20.60;;
25962;SDS011;13760;52.588;13.406;2024-02-15T07:51:42;38.42;;;21.30;;
25962;SDS011;13760;52.588;13.406;2024-02-15T07:54:09;33.30;;;19.50;;
25962;SDS011;13760;52.588;13.406;2024-02-15T07:56:35;35.72;;;19.40;;
25962;SDS011;13760;52.588;13.406;2024-02-15T07:59:01;32.75;;;19.15;;
25962;SDS011;13760;52.588;13.406;2024-02-15T08:01:27;34.33;;;19.65;;
25962;SDS011;13760;52.588;13.406;2024-02-15T08:03:55;32.00;;;18.88;;
25962;SDS011;13760;52.588;13.406;2024-02-15T08:06:25;33.70;;;19.38;;
25962;SDS011;13760;52.588;13.406;2024-02-15T08:09:02;32.70;;;18.30;;
25962;SDS011;13760;52.588;13.406;2024-02-15T08:11:42;30.70;;;17.38;;
25962;SDS011;13760;52.588;13.406;2024-02-15T08:14:07;29.25;;;18.30;;
25962;SDS011;13760;52.588;13.406;2024-02-15T08:16:35;27.80;;;17.98;;
25962;SDS011;13760;52.588;13.406;2024-02-15T08:19:02;26.42;;;16.75;;
25962;SDS011;13760;52.588;13.406;2024-02-15T08:21:30;27.50;;;16.65;;
25962;SDS011;13760;52.588;13.406;2024-02-15T08:24:12;28.48;;;17.73;;
25962;SDS011;13760;52.588;13.406;2024-02-15T08:26:38;23.88;;;16.33;;
25962;SDS011;13760;52.588;13.406;2024-02-15T08:29:05;30.15;;;17.95;;
25962;SDS011;13760;52.588;13.406;2024-02-15T08:31:34;23.77;;;16.20;;
25962;SDS011;13760;52.588;13.406;2024-02-15T08:34:03;25.25;;;16.88;;
25962;SDS011;13760;52.588;13.406;2024-02-15T08:36:30;23.75;;;16.38;;
25962;SDS011;13760;52.588;13.406;2024-02-15T08:38:56;24.55;;;16.15;;
25962;SDS011;13760;52.588;13.406;2024-02-15T08:41:22;26.67;;;15.68;;
25962;SDS011;13760;52.588;13.406;2024-02-15T08:43:51;25.60;;;16.45;;
25962;SDS011;13760;52.588;13.406;2024-02-15T08:46:17;25.65;;;16.90;;
25962;SDS011;13760;52.588;13.406;2024-02-15T08:48:43;26.48;;;16.98;;
25962;SDS011;13760;52.588;13.406;2024-02-15T08:51:09;22.65;;;15.48;;
25962;SDS011;13760;52.588;13.406;2024-02-15T08:53:35;27.23;;;15.60;;
25962;SDS011;13760;52.588;13.406;2024-02-15T08:56:03;24.10;;;15.60;;
25962;SDS011;13760;52.588;13.406;2024-02-15T08:58:32;25.45;;;15.45;;
25962;SDS011;13760;52.588;13.406;2024-02-15T09:00:58;21.00;;;14.98;;
25962;SDS011;13760;52.588;13.406;2024-02-15T09:03:24;21.83;;;15.32;;
25962;SDS011;13760;52.588;13.406;2024-02-15T09:05:53;24.45;;;15.00;;
25962;SDS011;13760;52.588;13.406;2024-02-15T09:08:18;19.77;;;14.07;;
25962;SDS011;13760;52.588;13.406;2024-02-15T09:10:54;23.98;;;14.45;;
25962;SDS011;13760;52.588;13.406;2024-02-15T09:13:20;19.50;;;14.13;;
25962;SDS011;13760;52.588;13.406;2024-02-15T09:15:47;23.77;;;14.85;;
25962;SDS011;13760;52.588;13.406;2024-02-15T09:18:13;18.35;;;14.02;;
25962;SDS011;13760;52.588;13.406;2024-02-15T09:20:40;16.58;;;13.57;;
25962;SDS011;13760;52.588;13.406;2024-02-15T09:23:10;19.83;;;13.90;;
25962;SDS011;13760;52.588;13.406;2024-02-15T09:25:40;17.08;;;13.43;;
25962;SDS011;13760;52.588;13.406;2024-02-15T09:28:09;17.08;;;12.80;;
25962;SDS011;13760;52.588;13.406;2024-02-15T09:30:35;18.30;;;13.55;;
25962;SDS011;13760;52.588;13.406;2024-02-15T09:33:00;17.80;;;12.55;;
25962;SDS011;13760;52.588;13.406;2024-02-15T09:35:30;16.13;;;12.02;;
25962;SDS011;13760;52.588;13.406;2024-02-15T09:37:56;17.33;;;11.90;;
25962;SDS011;13760;52.588;13.406;2024-02-15T09:40:22;16.98;;;11.90;;
25962;SDS011;13760;52.588;13.406;2024-02-15T09:42:51;17.27;;;12.48;;
25962;SDS011;13760;52.588;13.406;2024-02-15T09:45:17;22.23;;;12.52;;
25962;SDS011;13760;52.588;13.406;2024-02-15T09:47:50;20.23;;;12.60;;
25962;SDS011;13760;52.588;13.406;2024-02-15T09:50:17;14.98;;;11.35;;
25962;SDS011;13760;52.588;13.406;2024-02-15T09:52:44;14.75;;;11.38;;
25962;SDS011;13760;52.588;13.406;2024-02-15T09:55:10;16.92;;;11.70;;
25962;SDS011;13760;52.588;13.406;2024-02-15T09:57:40;13.30;;;11.20;;
25962;SDS011;13760;52.588;13.406;2024-02-15T10:00:08;14.40;;;11.18;;
25962;SDS011;13760;52.588;13.406;2024-02-15T10:02:38;13.90;;;10.95;;
25962;SDS011;13760;52.588;13.406;2024-02-15T10:05:05;16.00;;;11.23;;
25962;SDS011;13760;52.588;13.406;2024-02-15T10:07:36;16.25;;;11.15;;
25962;SDS011;13760;52.588;13.406;2024-02-15T10:10:20;13.90;;;10.80;;
25962;SDS011;13760;52.588;13.406;2024-02-15T10:12:48;13.35;;;10.60;;
25962;SDS011;13760;52.588;13.406;2024-02-15T10:15:34;13.95;;;10.88;;
25962;SDS011;13760;52.588;13.406;2024-02-15T10:18:15;19.38;;;10.75;;
25962;SDS011;13760;52.588;13.406;2024-02-15T10:20:41;11.20;;;9.40;;
25962;SDS011;13760;52.588;13.406;2024-02-15T10:25:43;14.63;;;10.00;;
25962;SDS011;13760;52.588;13.406;2024-02-15T10:28:12;14.70;;;10.18;;
25962;SDS011;13760;52.588;13.406;2024-02-15T10:30:41;11.25;;;9.18;;
25962;SDS011;13760;52.588;13.406;2024-02-15T10:33:17;14.37;;;9.93;;
25962;SDS011;13760;52.588;13.406;2024-02-15T10:35:46;13.48;;;10.52;;
25962;SDS011;13760;52.588;13.406;2024-02-15T10:38:12;13.15;;;10.48;;
25962;SDS011;13760;52.588;13.406;2024-02-15T10:40:40;12.23;;;9.48;;
25962;SDS011;13760;52.588;13.406;2024-02-15T10:43:07;12.23;;;9.65;;
25962;SDS011;13760;52.588;13.406;2024-02-15T10:45:35;11.98;;;8.60;;
25962;SDS011;13760;52.588;13.406;2024-02-15T10:48:02;11.63;;;8.93;;
25962;SDS011;13760;52.588;13.406;2024-02-15T10:50:30;12.32;;;8.25;;
25962;SDS011;13760;52.588;13.406;2024-02-15T10:52:56;10.32;;;8.30;;
25962;SDS011;13760;52.588;13.406;2024-02-15T10:55:37;8.90;;;8.00;;
25962;SDS011;13760;52.588;13.406;2024-02-15T10:58:05;11.65;;;7.57;;
25962;SDS011;13760;52.588;13.406;2024-02-15T11:00:35;11.18;;;7.53;;
25962;SDS011;13760;52.588;13.406;2024-02-15T11:03:05;11.07;;;7.53;;
25962;SDS011;13760;52.588;13.406;2024-02-15T11:05:39;8.45;;;7.55;;
25962;SDS011;13760;52.588;13.406;2024-02-15T11:08:09;10.93;;;7.03;;
25962;SDS011;13760;52.588;13.406;2024-02-15T11:10:35;7.63;;;6.53;;
25962;SDS011;13760;52.588;13.406;2024-02-15T11:13:02;7.85;;;6.55;;
25962;SDS011;13760;52.588;13.406;2024-02-15T11:18:00;9.07;;;6.05;;
25962;SDS011;13760;52.588;13.406;2024-02-15T11:23:01;7.68;;;6.03;;
25962;SDS011;13760;52.588;13.406;2024-02-15T11:25:34;7.50;;;5.95;;
25962;SDS011;13760;52.588;13.406;2024-02-15T11:30:51;10.73;;;6.03;;
25962;SDS011;13760;52.588;13.406;2024-02-15T11:33:30;8.20;;;6.20;;
25962;SDS011;13760;52.588;13.406;2024-02-15T11:36:03;7.40;;;5.65;;
25962;SDS011;13760;52.588;13.406;2024-02-15T11:38:36;9.77;;;5.97;;
25962;SDS011;13760;52.588;13.406;2024-02-15T11:41:06;8.02;;;5.35;;
25962;SDS011;13760;52.588;13.406;2024-02-15T11:46:14;6.22;;;5.40;;
25962;SDS011;13760;52.588;13.406;2024-02-15T11:48:47;7.63;;;5.32;;
25962;SDS011;13760;52.588;13.406;2024-02-15T11:54:02;6.90;;;5.47;;
25962;SDS011;13760;52.588;13.406;2024-02-15T11:56:32;7.07;;;5.40;;
25962;SDS011;13760;52.588;13.406;2024-02-15T11:59:38;9.77;;;5.43;;
25962;SDS011;13760;52.588;13.406;2024-02-15T12:02:39;5.85;;;5.10;;
25962;SDS011;13760;52.588;13.406;2024-02-15T12:05:23;7.40;;;5.00;;
25962;SDS011;13760;52.588;13.406;2024-02-15T12:08:07;5.95;;;4.88;;
25962;SDS011;13760;52.588;13.406;2024-02-15T12:10:58;7.05;;;5.30;;
25962;SDS011;13760;52.588;13.406;2024-02-15T12:13:51;8.85;;;6.25;;
25962;SDS011;13760;52.588;13.406;2024-02-15T12:16:36;9.20;;;5.87;;
25962;SDS011;13760;52.588;13.406;2024-02-15T12:19:20;7.10;;;5.60;;
25962;SDS011;13760;52.588;13.406;2024-02-15T12:21:46;8.48;;;5.93;;
25962;SDS011;13760;52.588;13.406;2024-02-15T12:24:13;9.38;;;6.50;;
25962;SDS011;13760;52.588;13.406;2024-02-15T12:26:39;8.35;;;6.13;;
25962;SDS011;13760;52.588;13.406;2024-02-15T12:29:06;10.52;;;5.90;;
25962;SDS011;13760;52.588;13.406;2024-02-15T12:31:33;9.98;;;5.90;;
25962;SDS011;13760;52.588;13.406;2024-02-15T12:34:03;8.93;;;6.18;;
25962;SDS011;13760;52.588;13.406;2024-02-15T12:36:36;10.77;;;6.93;;
25962;SDS011;13760;52.588;13.406;2024-02-15T12:39:03;11.57;;;7.03;;
25962;SDS011;13760;52.588;13.406;2024-02-15T12:41:37;10.63;;;7.13;;
25962;SDS011;13760;52.588;13.406;2024-02-15T12:44:05;12.75;;;7.00;;
25962;SDS011;13760;52.588;13.406;2024-02-15T12:46:55;12.68;;;7.00;;
25962;SDS011;13760;52.588;13.406;2024-02-15T12:51:50;6.90;;;5.90;;
25962;SDS011;13760;52.588;13.406;2024-02-15T12:54:22;9.25;;;5.43;;
25962;SDS011;13760;52.588;13.406;2024-02-15T12:56:49;7.75;;;5.60;;
25962;SDS011;13760;52.588;13.406;2024-02-15T12:59:17;6.60;;;5.13;;
25962;SDS011;13760;52.588;13.406;2024-02-15T13:01:44;7.07;;;4.22;;
25962;SDS011;13760;52.588;13.406;2024-02-15T13:04:20;5.80;;;4.00;;
25962;SDS011;13760;52.588;13.406;2024-02-15T13:06:50;6.28;;;4.45;;
25962;SDS011;13760;52.588;13.406;2024-02-15T13:09:15;6.47;;;4.30;;
25962;SDS011;13760;52.588;13.406;2024-02-15T13:11:41;7.15;;;4.35;;
25962;SDS011;13760;52.588;13.406;2024-02-15T13:14:10;9.95;;;4.07;;
25962;SDS011;13760;52.588;13.406;2024-02-15T13:16:36;6.85;;;4.40;;
25962;SDS011;13760;52.588;13.406;2024-02-15T13:19:02;6.65;;;4.28;;
25962;SDS011;13760;52.588;13.406;2024-02-15T13:21:28;6.63;;;4.75;;
25962;SDS011;13760;52.588;13.406;2024-02-15T13:23:55;5.53;;;4.18;;
25962;SDS011;13760;52.588;13.406;2024-02-15T13:26:21;5.75;;;4.20;;
25962;SDS011;13760;52.588;13.406;2024-02-15T13:28:50;7.10;;;4.63;;
25962;SDS011;13760;52.588;13.406;2024-02-15T13:31:17;7.28;;;4.30;;
25962;SDS011;13760;52.588;13.406;2024-02-15T13:33:42;6.65;;;4.75;;
25962;SDS011;13760;52.588;13.406;2024-02-15T13:36:08;5.53;;;4.50;;
25962;SDS011;13760;52.588;13.406;2024-02-15T13:38:36;7.57;;;4.38;;
25962;SDS011;13760;52.588;13.406;2024-02-15T13:41:02;7.38;;;4.88;;
25962;SDS011;13760;52.588;13.406;2024-02-15T13:43:29;7.72;;;5.18;;
25962;SDS011;13760;52.588;13.406;2024-02-15T13:46:00;5.30;;;4.05;;
25962;SDS011;13760;52.588;13.406;2024-02-15T13:48:29;7.00;;;4.55;;
25962;SDS011;13760;52.588;13.406;2024-02-15T13:50:55;6.57;;;4.50;;
25962;SDS011;13760;52.588;13.406;2024-02-15T13:53:21;4.68;;;3.95;;
25962;SDS011;13760;52.588;13.406;2024-02-15T13:55:48;8.65;;;4.25;;
25962;SDS011;13760;52.588;13.406;2024-02-15T13:58:18;8.10;;;4.25;;
25962;SDS011;13760;52.588;13.406;2024-02-15T14:00:48;5.15;;;3.92;;
25962;SDS011;13760;52.588;13.406;2024-02-15T14:03:22;6.38;;;3.42;;
25962;SDS011;13760;52.588;13.406;2024-02-15T14:05:49;7.72;;;4.13;;
25962;SDS011;13760;52.588;13.406;2024-02-15T14:08:15;7.03;;;3.85;;
25962;SDS011;13760;52.588;13.406;2024-02-15T14:10:40;4.93;;;3.67;;
25962;SDS011;13760;52.588;13.406;2024-02-15T14:13:06;6.22;;;4.20;;
25962;SDS011;13760;52.588;13.406;2024-02-15T14:15:34;6.40;;;3.35;;
25962;SDS011;13760;52.588;13.406;2024-02-15T14:18:03;5.75;;;3.72;;
25962;SDS011;13760;52.588;13.406;2024-02-15T14:20:33;5.90;;;3.60;;
25962;SDS011;13760;52.588;13.406;2024-02-15T14:22:58;5.05;;;3.67;;
25962;SDS011;13760;52.588;13.406;2024-02-15T14:25:29;6.22;;;3.83;;
25962;SDS011;13760;52.588;13.406;2024-02-15T14:27:56;8.38;;;4.35;;
25962;SDS011;13760;52.588;13.406;2024-02-15T14:30:22;9.90;;;3.80;;
25962;SDS011;13760;52.588;13.406;2024-02-15T14:33:07;5.85;;;3.85;;
25962;SDS011;13760;52.588;13.406;2024-02-15T14:35:36;8.20;;;3.63;;
25962;SDS011;13760;52.588;13.406;2024-02-15T14:38:08;5.85;;;3.53;;
25962;SDS011;13760;52.588;13.406;2024-02-15T14:40:36;10.10;;;3.88;;
25962;SDS011;13760;52.588;13.406;2024-02-15T14:43:06;6.93;;;3.60;;